Weather at Jerusalem Airport [CLOSED]

Public forecast

Using degrees Celsius for public forecast. Weather courtesy of forecast.io.

Closest aviation weather report (METAR) to Jerusalem Airport

Closest report is Ben Gurion International Airport, 19.1 nm (35.4 km) WNW. Retrieved 2021/01/20 08:20 UTC (0 seconds ago):

LLBG 200820Z 26023G33KT 9999 FEW025TCU SCT045 14/04 Q1020 TEMPO 5000 TSRA FEW020CB BKN025 RMK BKN120

Closest aviation forecast (TAF) to Jerusalem Airport

Closest forecast is Ben Gurion International Airport, 19.1 nm (35.4 km) WNW. Retrieved 2021/01/20 06:21 UTC (2 hours ago):

TAF TAF LLBG 200518Z 2006/2106 29015KT 9999 SCT035 BKN050 TEMPO 2006/2012 30020G30KT 6000 RAGS SCT020TCU BKN030 BECMG 2016/2018 02006KT SCT040 BECMG 2022/2024 VRB03KT CAVOK TX14/2011Z TN07/2104Z